createdAt,value
2018-10-18T00:01:29.680Z,21.43
2018-10-18T00:03:58.089Z,21.70
2018-10-18T00:06:26.348Z,22.40
2018-10-18T00:08:54.661Z,21.57
2018-10-18T00:11:23.081Z,21.33
2018-10-18T00:13:51.362Z,22.50
2018-10-18T00:16:20.346Z,20.00
2018-10-18T00:18:48.612Z,20.80
2018-10-18T00:21:17.000Z,20.70
2018-10-18T00:23:45.340Z,20.23
2018-10-18T00:26:13.630Z,20.40
2018-10-18T00:28:42.129Z,21.70
2018-10-18T00:31:10.511Z,20.80
2018-10-18T00:33:38.759Z,21.17
2018-10-18T00:36:07.049Z,20.70
2018-10-18T00:38:35.780Z,20.63
2018-10-18T00:41:04.240Z,20.10
2018-10-18T00:43:32.502Z,20.40
2018-10-18T00:46:01.025Z,21.12
2018-10-18T00:48:29.321Z,21.73
2018-10-18T00:50:57.661Z,20.10
2018-10-18T00:53:26.263Z,21.63
2018-10-18T00:55:54.551Z,21.30
2018-10-18T00:58:23.139Z,19.10
2018-10-18T01:00:51.424Z,20.83
2018-10-18T01:03:19.820Z,21.23
2018-10-18T01:05:48.431Z,19.92
2018-10-18T01:08:17.057Z,21.27
2018-10-18T01:10:45.815Z,23.63
2018-10-18T01:13:14.516Z,21.10
2018-10-18T01:15:42.812Z,21.00
2018-10-18T01:18:11.404Z,21.27
2018-10-18T01:20:39.876Z,19.27
2018-10-18T01:23:09.050Z,19.27
2018-10-18T01:25:37.618Z,19.87
2018-10-18T01:28:05.879Z,21.00
2018-10-18T01:30:34.527Z,19.90
2018-10-18T01:33:03.044Z,19.77
2018-10-18T01:35:31.292Z,20.50
2018-10-18T01:37:59.630Z,23.30
2018-10-18T01:40:28.033Z,21.37
2018-10-18T01:42:56.576Z,22.35
2018-10-18T01:45:24.927Z,22.10
2018-10-18T01:47:53.341Z,24.37
2018-10-18T01:50:22.182Z,24.77
2018-10-18T01:52:50.768Z,21.80
2018-10-18T01:55:19.016Z,23.17
2018-10-18T01:57:47.264Z,21.73
2018-10-18T02:00:15.956Z,23.40
2018-10-18T02:02:44.638Z,21.47
2018-10-18T02:05:12.938Z,22.90
2018-10-18T02:07:41.339Z,20.83
2018-10-18T02:10:10.142Z,22.70
2018-10-18T02:12:38.672Z,21.00
2018-10-18T02:15:09.696Z,21.42
2018-10-18T02:17:38.165Z,21.90
2018-10-18T02:20:07.281Z,21.00
2018-10-18T02:22:36.071Z,20.20
2018-10-18T02:25:04.782Z,20.80
2018-10-18T02:27:33.155Z,19.93
2018-10-18T02:30:01.644Z,21.03
2018-10-18T02:32:30.557Z,18.97
2018-10-18T02:34:58.965Z,21.07
2018-10-18T02:37:27.748Z,20.80
2018-10-18T02:39:55.999Z,20.00
2018-10-18T02:42:24.247Z,21.13
2018-10-18T02:44:52.956Z,19.93
2018-10-18T02:47:21.215Z,19.97
2018-10-18T02:49:50.084Z,21.10
2018-10-18T02:52:18.489Z,20.27
2018-10-18T02:54:46.819Z,18.70
2018-10-18T02:57:15.067Z,18.03
2018-10-18T02:59:43.484Z,16.30
2018-10-18T03:02:11.747Z,16.93
2018-10-18T03:04:40.040Z,17.53
2018-10-18T03:07:08.663Z,20.37
2018-10-18T03:09:37.960Z,19.87
2018-10-18T03:12:06.343Z,19.70
2018-10-18T03:14:34.911Z,19.60
2018-10-18T03:17:03.454Z,18.98
2018-10-18T03:19:32.078Z,18.57
2018-10-18T03:22:00.454Z,18.80
2018-10-18T03:24:28.993Z,18.35
2018-10-18T03:26:57.595Z,17.40
2018-10-18T03:29:26.464Z,19.07
2018-10-18T03:31:54.715Z,19.20
2018-10-18T03:34:22.991Z,19.60
2018-10-18T03:36:51.678Z,18.30
2018-10-18T03:39:20.408Z,19.07
2018-10-18T03:41:48.664Z,19.67
2018-10-18T03:44:17.286Z,19.97
2018-10-18T03:46:45.815Z,20.82
2018-10-18T03:49:14.089Z,19.17
2018-10-18T03:51:42.524Z,18.30
2018-10-18T03:54:11.043Z,17.83
2018-10-18T03:56:39.656Z,19.20
2018-10-18T03:59:08.340Z,17.73
2018-10-18T04:01:36.922Z,20.25
2018-10-18T04:04:05.393Z,19.90
2018-10-18T04:06:34.633Z,20.63
2018-10-18T04:09:03.043Z,19.47
2018-10-18T04:11:31.420Z,20.00
2018-10-18T04:13:59.944Z,20.40
2018-10-18T04:16:29.580Z,20.70
2018-10-18T04:18:57.853Z,18.63
2018-10-18T04:21:26.112Z,20.73
2018-10-18T04:23:55.197Z,21.87
2018-10-18T04:26:23.983Z,20.73
2018-10-18T04:28:52.559Z,21.13
2018-10-18T04:31:21.020Z,20.27
2018-10-18T04:33:49.661Z,21.07
2018-10-18T04:36:18.249Z,18.77
2018-10-18T04:38:46.579Z,21.60
2018-10-18T04:41:15.139Z,21.17
2018-10-18T04:43:43.711Z,21.93
2018-10-18T04:46:11.999Z,19.37
2018-10-18T04:48:40.294Z,22.17
2018-10-18T04:51:08.783Z,21.17
2018-10-18T04:53:37.075Z,22.37
2018-10-18T04:56:05.630Z,19.20
2018-10-18T04:58:33.917Z,20.30
2018-10-18T05:01:02.379Z,20.90
2018-10-18T05:03:30.803Z,17.87
2018-10-18T05:06:00.749Z,18.10
2018-10-18T05:08:29.419Z,18.90
2018-10-18T05:10:57.683Z,19.77
2018-10-18T05:13:26.095Z,20.97
2018-10-18T05:15:54.648Z,19.60
2018-10-18T05:18:23.238Z,19.80
2018-10-18T05:20:51.567Z,21.07
2018-10-18T05:23:19.835Z,23.23
2018-10-18T05:25:48.899Z,19.17
2018-10-18T05:28:18.000Z,21.60
2018-10-18T05:30:46.596Z,20.03
2018-10-18T05:33:14.848Z,19.77
2018-10-18T05:35:43.433Z,19.90
2018-10-18T05:38:12.039Z,19.03
2018-10-18T05:40:40.479Z,18.97
2018-10-18T05:43:08.833Z,19.43
2018-10-18T05:45:37.568Z,19.80
2018-10-18T05:48:06.285Z,18.70
2018-10-18T05:50:34.797Z,20.33
2018-10-18T05:53:03.128Z,20.70
2018-10-18T05:55:31.912Z,20.30
2018-10-18T05:58:00.669Z,21.70
2018-10-18T06:00:29.649Z,19.92
2018-10-18T06:02:58.057Z,21.60
2018-10-18T06:05:26.741Z,20.52
2018-10-18T06:07:55.490Z,21.33
2018-10-18T06:10:35.216Z,20.93
2018-10-18T06:13:04.384Z,21.40
2018-10-18T06:15:33.312Z,21.03
2018-10-18T06:18:02.189Z,21.17
2018-10-18T06:20:30.853Z,21.87
2018-10-18T06:22:59.331Z,19.47
2018-10-18T06:25:27.803Z,20.27
2018-10-18T06:27:56.434Z,20.67
2018-10-18T06:30:24.838Z,20.97
2018-10-18T06:32:53.540Z,21.40
2018-10-18T06:35:22.105Z,22.03
2018-10-18T06:37:50.777Z,22.42
2018-10-18T06:40:19.469Z,21.57
2018-10-18T06:42:47.951Z,22.80
2018-10-18T06:45:17.606Z,25.93
2018-10-18T06:47:46.463Z,25.30
2018-10-18T06:50:18.251Z,25.20
2018-10-18T06:52:46.745Z,25.63
2018-10-18T06:55:15.338Z,27.00
2018-10-18T06:57:44.376Z,27.20
2018-10-18T07:00:17.911Z,26.00
2018-10-18T07:02:46.737Z,27.00
2018-10-18T07:05:15.842Z,25.25
2018-10-18T07:07:45.062Z,26.03
2018-10-18T07:10:13.918Z,26.20
2018-10-18T07:12:42.704Z,24.47
2018-10-18T07:15:13.660Z,22.83
2018-10-18T07:17:42.809Z,26.57
2018-10-18T07:20:11.981Z,26.10
2018-10-18T07:22:41.028Z,25.10
2018-10-18T07:25:12.086Z,23.93
2018-10-18T07:27:41.293Z,23.80
2018-10-18T07:30:11.621Z,25.53
2018-10-18T07:32:41.004Z,24.70
2018-10-18T07:35:10.858Z,24.32
2018-10-18T07:37:39.826Z,25.63
2018-10-18T07:40:10.764Z,25.75
2018-10-18T07:42:39.317Z,25.37
2018-10-18T07:45:08.808Z,27.30
2018-10-18T07:47:37.436Z,24.83
2018-10-18T07:50:06.499Z,25.77
2018-10-18T07:52:35.271Z,26.50
2018-10-18T07:55:04.193Z,29.27
2018-10-18T07:57:32.857Z,28.00
2018-10-18T08:00:01.410Z,28.03
2018-10-18T08:02:30.618Z,26.87
2018-10-18T08:04:59.307Z,28.95
2018-10-18T08:07:27.744Z,30.80
2018-10-18T08:09:56.512Z,29.60
2018-10-18T08:12:25.277Z,31.63
2018-10-18T08:14:53.683Z,30.10
2018-10-18T08:17:22.369Z,30.00
2018-10-18T08:19:51.240Z,32.83
2018-10-18T08:22:19.657Z,30.07
2018-10-18T08:24:48.259Z,32.20
2018-10-18T08:27:16.992Z,31.30
2018-10-18T08:29:45.658Z,32.87
2018-10-18T08:32:15.004Z,31.80
2018-10-18T08:34:43.572Z,31.13
2018-10-18T08:37:12.144Z,33.70
2018-10-18T08:39:40.691Z,33.17
2018-10-18T08:42:09.065Z,34.10
2018-10-18T08:44:37.544Z,34.00
2018-10-18T08:47:08.456Z,38.30
2018-10-18T08:49:37.286Z,35.98
2018-10-18T08:52:06.173Z,36.17
2018-10-18T08:54:34.673Z,39.67
2018-10-18T08:57:03.466Z,34.70
2018-10-18T08:59:32.528Z,34.70
2018-10-18T09:02:01.520Z,37.23
2018-10-18T09:04:29.894Z,35.20
2018-10-18T09:06:58.617Z,38.50
2018-10-18T09:09:27.457Z,36.10
2018-10-18T09:11:55.857Z,36.23
2018-10-18T09:14:24.401Z,38.00
2018-10-18T09:16:53.359Z,36.20
2018-10-18T09:19:21.782Z,34.60
2018-10-18T09:21:50.496Z,35.75
2018-10-18T09:24:19.256Z,36.37
2018-10-18T09:26:47.755Z,37.20
2018-10-18T09:29:16.448Z,37.90
2018-10-18T09:31:45.229Z,36.17
2018-10-18T09:34:13.656Z,36.93
2018-10-18T09:36:42.382Z,38.20
2018-10-18T09:39:10.802Z,39.27
2018-10-18T09:41:39.979Z,38.13
2018-10-18T09:44:08.638Z,41.70
2018-10-18T09:46:37.806Z,42.00
2018-10-18T09:49:06.565Z,44.87
2018-10-18T09:51:35.115Z,45.37
2018-10-18T09:54:04.042Z,47.87
2018-10-18T09:56:33.102Z,45.90
2018-10-18T09:59:01.792Z,45.77
2018-10-18T10:01:35.769Z,42.98
2018-10-18T10:04:04.430Z,45.80
2018-10-18T10:06:32.991Z,45.37
2018-10-18T10:09:01.648Z,42.63
2018-10-18T10:11:30.038Z,44.77
2018-10-18T10:13:58.644Z,43.10
2018-10-18T10:16:27.036Z,40.37
2018-10-18T10:18:55.661Z,43.10
2018-10-18T10:21:24.557Z,41.55
2018-10-18T10:23:53.552Z,41.53
2018-10-18T10:26:22.246Z,40.37
2018-10-18T10:28:50.620Z,42.23
2018-10-18T10:31:19.237Z,40.30
2018-10-18T10:33:47.796Z,39.00
2018-10-18T10:36:16.668Z,41.50
2018-10-18T10:38:45.148Z,43.87
2018-10-18T10:41:13.833Z,42.50
2018-10-18T10:43:42.564Z,42.50
2018-10-18T10:46:11.297Z,40.37
2018-10-18T10:48:40.273Z,40.13
2018-10-18T10:51:08.820Z,43.73
2018-10-18T10:53:37.509Z,41.40
2018-10-18T10:56:06.154Z,42.30
2018-10-18T10:58:34.743Z,40.77
2018-10-18T11:01:08.507Z,42.20
2018-10-18T11:03:37.562Z,37.77
2018-10-18T11:06:06.336Z,40.15
2018-10-18T11:08:35.565Z,38.67
2018-10-18T11:11:04.105Z,39.53
2018-10-18T11:13:32.798Z,39.73
2018-10-18T11:16:02.535Z,34.87
2018-10-18T11:18:32.408Z,36.70
2018-10-18T11:21:01.988Z,35.28
2018-10-18T11:23:31.048Z,36.43
2018-10-18T11:25:59.465Z,33.47
2018-10-18T11:28:28.411Z,33.63
2018-10-18T11:30:56.793Z,36.20
2018-10-18T11:33:25.466Z,35.50
2018-10-18T11:35:54.083Z,30.13
2018-10-18T11:38:22.929Z,32.73
2018-10-18T11:40:51.388Z,31.23
2018-10-18T11:43:19.830Z,30.60
2018-10-18T11:45:48.552Z,32.40
2018-10-18T11:48:17.152Z,33.30
2018-10-18T11:50:45.859Z,32.43
2018-10-18T11:53:14.534Z,31.87
2018-10-18T11:55:42.920Z,27.97
2018-10-18T11:58:12.345Z,27.63
2018-10-18T12:00:40.817Z,30.77
2018-10-18T12:03:09.386Z,29.87
2018-10-18T12:05:38.497Z,30.27
2018-10-18T12:08:07.371Z,29.87
2018-10-18T12:10:36.118Z,29.13
2018-10-18T12:13:04.517Z,25.40
2018-10-18T12:15:33.905Z,27.00
2018-10-18T12:18:02.321Z,26.30
2018-10-18T12:20:31.010Z,28.12
2018-10-18T12:22:59.521Z,26.83
2018-10-18T12:25:28.040Z,26.07
2018-10-18T12:27:56.862Z,26.90
2018-10-18T12:30:25.500Z,25.37
2018-10-18T12:32:53.897Z,26.50
2018-10-18T12:35:22.575Z,27.93
2018-10-18T12:37:51.181Z,27.50
2018-10-18T12:40:19.573Z,26.87
2018-10-18T12:42:49.852Z,25.67
2018-10-18T12:45:18.229Z,27.00
2018-10-18T12:47:47.006Z,23.80
2018-10-18T12:50:17.212Z,26.50
2018-10-18T12:52:45.749Z,29.00
2018-10-18T12:55:14.173Z,27.23
2018-10-18T12:57:42.907Z,30.30
2018-10-18T13:00:11.974Z,29.20
2018-10-18T13:02:40.569Z,27.10
2018-10-18T13:05:10.087Z,26.97
2018-10-18T13:07:38.763Z,29.63
2018-10-18T13:10:09.093Z,28.60
2018-10-18T13:12:37.693Z,29.70
2018-10-18T13:15:07.677Z,25.97
2018-10-18T13:17:36.253Z,25.33
2018-10-18T13:20:05.555Z,24.13
2018-10-18T13:22:34.100Z,25.37
2018-10-18T13:25:03.091Z,22.05
2018-10-18T13:27:31.761Z,25.73
2018-10-18T13:30:00.217Z,26.13
2018-10-18T13:32:29.506Z,25.60
2018-10-18T13:34:57.881Z,28.50
2018-10-18T13:37:26.538Z,27.75
2018-10-18T13:39:55.149Z,28.57
2018-10-18T13:42:23.635Z,27.30
2018-10-18T13:44:52.076Z,27.25
2018-10-18T13:47:24.095Z,27.93
2018-10-18T13:49:52.710Z,26.53
2018-10-18T13:52:22.132Z,25.05
2018-10-18T13:54:50.564Z,25.60
2018-10-18T13:57:19.436Z,26.23
2018-10-18T14:00:00.770Z,28.73
2018-10-18T14:02:29.525Z,27.95
2018-10-18T14:04:58.208Z,28.03
2018-10-18T14:07:27.166Z,29.70
2018-10-18T14:09:55.604Z,27.33
2018-10-18T14:12:24.072Z,28.50
2018-10-18T14:14:52.581Z,27.00
2018-10-18T14:17:21.524Z,26.03
2018-10-18T14:19:49.985Z,25.53
2018-10-18T14:22:18.663Z,27.67
2018-10-18T14:24:47.060Z,28.80
2018-10-18T14:27:15.446Z,27.47
2018-10-18T14:29:44.021Z,25.63
2018-10-18T14:32:12.433Z,24.97
2018-10-18T14:34:40.972Z,26.70
2018-10-18T14:37:09.382Z,26.23
2018-10-18T14:39:37.780Z,27.27
2018-10-18T14:42:06.391Z,27.40
2018-10-18T14:44:35.139Z,26.40
2018-10-18T14:47:03.788Z,27.07
2018-10-18T14:49:32.352Z,26.07
2018-10-18T14:52:01.019Z,25.17
2018-10-18T14:54:29.596Z,25.30
2018-10-18T14:56:57.993Z,24.33
2018-10-18T14:59:26.610Z,24.73
2018-10-18T15:01:55.011Z,24.47
2018-10-18T15:04:23.799Z,22.57
2018-10-18T15:06:52.616Z,21.90
2018-10-18T15:09:21.269Z,21.67
2018-10-18T15:11:49.940Z,23.60
2018-10-18T15:14:18.890Z,21.70
2018-10-18T15:16:47.486Z,21.10
2018-10-18T15:19:16.236Z,23.57
2018-10-18T15:21:44.853Z,24.40
2018-10-18T15:24:13.224Z,24.37
2018-10-18T15:26:42.006Z,24.57
2018-10-18T15:29:12.292Z,24.83
2018-10-18T15:31:41.065Z,23.00
2018-10-18T15:34:09.720Z,24.18
2018-10-18T15:36:38.142Z,25.23
2018-10-18T15:39:11.198Z,24.30
2018-10-18T15:41:40.600Z,23.40
2018-10-18T15:44:09.885Z,23.40
2018-10-18T15:46:38.658Z,24.30
2018-10-18T15:49:07.744Z,22.60
2018-10-18T15:51:37.128Z,22.62
2018-10-18T15:54:06.726Z,21.77
2018-10-18T15:56:35.956Z,22.17
2018-10-18T15:59:05.142Z,20.67
2018-10-18T16:01:33.989Z,21.93
2018-10-18T16:04:02.650Z,22.60
2018-10-18T16:06:31.711Z,24.20
2018-10-18T16:09:00.468Z,22.52
2018-10-18T16:11:29.139Z,22.37
2018-10-18T16:13:57.780Z,23.77
2018-10-18T16:16:26.309Z,23.00
2018-10-18T16:18:57.129Z,23.80
2018-10-18T16:21:25.808Z,23.22
2018-10-18T16:23:54.196Z,25.50
2018-10-18T16:26:22.982Z,24.13
2018-10-18T16:28:51.498Z,23.10
2018-10-18T16:31:20.224Z,24.70
2018-10-18T16:33:48.808Z,24.80
2018-10-18T16:36:17.615Z,26.57
2018-10-18T16:38:46.305Z,25.50
2018-10-18T16:41:14.884Z,25.43
2018-10-18T16:43:43.554Z,24.87
2018-10-18T16:46:12.210Z,27.43
2018-10-18T16:48:41.070Z,26.37
2018-10-18T16:51:09.465Z,24.30
2018-10-18T16:53:37.861Z,27.80
2018-10-18T16:56:06.754Z,26.27
2018-10-18T16:58:36.056Z,26.05
2018-10-18T17:01:04.780Z,26.17
2018-10-18T17:03:33.290Z,25.70
2018-10-18T17:06:02.018Z,28.07
2018-10-18T17:08:30.663Z,26.30
2018-10-18T17:10:59.118Z,25.87
2018-10-18T17:13:27.580Z,27.80
2018-10-18T17:15:56.023Z,28.10
2018-10-18T17:18:24.949Z,27.98
2018-10-18T17:20:53.771Z,27.55
2018-10-18T17:23:22.532Z,27.80
2018-10-18T17:25:51.125Z,27.50
2018-10-18T17:28:19.532Z,28.63
2018-10-18T17:30:47.950Z,27.90
2018-10-18T17:33:16.632Z,27.97
2018-10-18T17:35:45.255Z,26.80
2018-10-18T17:38:13.701Z,28.90
2018-10-18T17:40:42.569Z,26.68
2018-10-18T17:43:11.077Z,27.40
2018-10-18T17:45:39.450Z,28.07
2018-10-18T17:48:08.280Z,26.80
2018-10-18T17:50:37.801Z,26.73
2018-10-18T17:53:06.573Z,26.40
2018-10-18T17:55:35.090Z,28.10
2018-10-18T17:58:03.619Z,26.57
2018-10-18T18:00:32.389Z,26.80
2018-10-18T18:03:01.183Z,25.90
2018-10-18T18:05:29.613Z,26.17
2018-10-18T18:07:58.393Z,26.33
2018-10-18T18:10:27.083Z,29.33
2018-10-18T18:12:55.634Z,27.60
2018-10-18T18:15:24.434Z,28.37
2018-10-18T18:17:52.903Z,29.10
2018-10-18T18:20:21.328Z,26.23
2018-10-18T18:22:49.785Z,27.60
2018-10-18T18:25:18.392Z,28.50
2018-10-18T18:27:47.181Z,27.47
2018-10-18T18:30:15.809Z,26.97
2018-10-18T18:32:44.447Z,28.17
2018-10-18T18:35:13.093Z,28.27
2018-10-18T18:37:41.747Z,27.70
2018-10-18T18:40:10.716Z,28.75
2018-10-18T18:42:39.796Z,27.23
2018-10-18T18:45:14.709Z,29.80
2018-10-18T18:47:43.196Z,27.30
2018-10-18T18:50:11.672Z,28.47
2018-10-18T18:52:39.986Z,26.50
2018-10-18T18:55:09.664Z,28.15
2018-10-18T18:57:38.457Z,26.60
2018-10-18T19:00:07.985Z,26.93
2018-10-18T19:02:36.800Z,27.77
2018-10-18T19:05:06.736Z,30.95
2018-10-18T19:07:35.164Z,27.80
2018-10-18T19:10:03.728Z,27.40
2018-10-18T19:12:32.300Z,28.85
2018-10-18T19:15:00.778Z,28.30
2018-10-18T19:17:29.314Z,28.77
2018-10-18T19:19:57.921Z,28.30
2018-10-18T19:22:26.255Z,28.30
2018-10-18T19:24:55.335Z,29.00
2018-10-18T19:27:23.744Z,29.23
2018-10-18T19:29:52.572Z,30.57
2018-10-18T19:32:21.493Z,28.87
2018-10-18T19:34:49.957Z,29.57
2018-10-18T19:37:18.547Z,30.87
2018-10-18T19:39:46.867Z,30.73
2018-10-18T19:42:15.156Z,29.27
2018-10-18T19:44:43.849Z,29.70
2018-10-18T19:47:12.780Z,29.40
2018-10-18T19:49:41.336Z,29.47
2018-10-18T19:52:10.083Z,30.70
2018-10-18T19:54:38.401Z,31.33
2018-10-18T19:57:16.517Z,29.73
2018-10-18T19:59:44.912Z,28.70
2018-10-18T20:02:13.680Z,30.87
2018-10-18T20:04:42.154Z,31.70
2018-10-18T20:07:10.932Z,31.73
2018-10-18T20:09:39.273Z,31.30
2018-10-18T20:12:08.101Z,30.35
2018-10-18T20:14:36.621Z,33.10
2018-10-18T20:17:07.036Z,31.55
2018-10-18T20:19:35.712Z,29.97
2018-10-18T20:22:06.505Z,32.50
2018-10-18T20:24:35.029Z,31.43
2018-10-18T20:27:03.831Z,31.60
2018-10-18T20:29:32.125Z,31.90
2018-10-18T20:32:00.952Z,33.50
2018-10-18T20:34:29.239Z,31.00
2018-10-18T20:36:57.784Z,31.25
2018-10-18T20:39:26.081Z,32.00
2018-10-18T20:41:54.348Z,32.90
2018-10-18T20:44:22.735Z,32.43
2018-10-18T20:46:51.857Z,30.00
2018-10-18T20:49:20.224Z,30.80
2018-10-18T20:51:48.988Z,29.20
2018-10-18T20:54:17.429Z,29.77
2018-10-18T20:56:45.879Z,30.40
2018-10-18T20:59:14.325Z,32.57
2018-10-18T21:01:43.444Z,31.57
2018-10-18T21:04:11.724Z,31.20
2018-10-18T21:06:40.860Z,31.90
2018-10-18T21:09:10.461Z,32.10
2018-10-18T21:11:38.973Z,31.37
2018-10-18T21:14:07.581Z,30.00
2018-10-18T21:16:35.864Z,30.13
2018-10-18T21:19:04.536Z,32.15
2018-10-18T21:21:33.927Z,30.23
2018-10-18T21:24:02.212Z,32.07
2018-10-18T21:26:30.843Z,30.33
2018-10-18T21:28:59.149Z,29.77
2018-10-18T21:31:27.956Z,28.30
2018-10-18T21:33:56.398Z,29.97
2018-10-18T21:36:25.290Z,31.23
2018-10-18T21:38:53.704Z,30.97
2018-10-18T21:41:22.144Z,31.47
2018-10-18T21:43:50.400Z,32.00
2018-10-18T21:46:19.040Z,33.57
2018-10-18T21:48:47.442Z,33.07
2018-10-18T21:51:15.931Z,31.40
2018-10-18T21:53:44.386Z,30.67
2018-10-18T21:56:12.965Z,33.33
2018-10-18T21:58:41.803Z,35.13
2018-10-18T22:01:10.192Z,32.17
2018-10-18T22:03:38.528Z,33.20
2018-10-18T22:06:07.148Z,32.53
2018-10-18T22:08:35.792Z,33.00
2018-10-18T22:11:04.863Z,29.10
2018-10-18T22:13:33.358Z,30.27
2018-10-18T22:16:02.256Z,30.60
2018-10-18T22:18:30.863Z,29.30
2018-10-18T22:20:59.427Z,30.97
2018-10-18T22:23:27.903Z,28.53
2018-10-18T22:25:56.451Z,29.90
2018-10-18T22:28:25.056Z,32.40
2018-10-18T22:30:53.411Z,31.50
2018-10-18T22:33:21.692Z,30.70
2018-10-18T22:35:50.082Z,31.73
2018-10-18T22:38:18.644Z,31.55
2018-10-18T22:40:47.264Z,29.20
2018-10-18T22:43:15.777Z,28.90
2018-10-18T22:45:48.305Z,31.57
2018-10-18T22:48:17.068Z,28.60
2018-10-18T22:50:45.620Z,30.55
2018-10-18T22:53:14.324Z,30.97
2018-10-18T22:55:42.917Z,29.30
2018-10-18T22:58:11.187Z,29.80
2018-10-18T23:00:39.468Z,31.77
2018-10-18T23:03:08.985Z,30.60
2018-10-18T23:05:37.664Z,30.23
2018-10-18T23:08:06.310Z,30.80
2018-10-18T23:10:34.853Z,32.33
2018-10-18T23:13:03.828Z,31.10
2018-10-18T23:15:32.249Z,31.80
2018-10-18T23:18:00.605Z,33.17
2018-10-18T23:20:28.947Z,31.77
2018-10-18T23:22:57.640Z,30.70
2018-10-18T23:25:26.389Z,29.92
2018-10-18T23:27:54.676Z,29.03
2018-10-18T23:30:23.240Z,27.23
2018-10-18T23:32:51.854Z,31.87
2018-10-18T23:35:20.343Z,33.53
2018-10-18T23:37:49.036Z,33.63
2018-10-18T23:40:17.633Z,30.40
2018-10-18T23:42:46.227Z,31.90
2018-10-18T23:45:14.829Z,32.00
2018-10-18T23:47:43.594Z,31.87
2018-10-18T23:50:12.133Z,33.23
2018-10-18T23:52:40.527Z,29.80
2018-10-18T23:55:08.791Z,29.40
2018-10-18T23:57:37.368Z,32.63
